sensor_id;sensor_type;location;lat;lon;timestamp;temperature;humidity
1063;DHT22;520;50.932;6.962;2023-06-14T00:02:13;24.00;44.10
1063;DHT22;520;50.932;6.962;2023-06-14T00:04:44;23.90;43.70
1063;DHT22;520;50.932;6.962;2023-06-14T00:07:41;23.90;43.60
1063;DHT22;520;50.932;6.962;2023-06-14T00:10:21;23.80;43.70
1063;DHT22;520;50.932;6.962;2023-06-14T00:13:14;23.60;44.10
1063;DHT22;520;50.932;6.962;2023-06-14T00:16:01;23.50;44.50
1063;DHT22;520;50.932;6.962;2023-06-14T00:18:37;23.60;44.40
1063;DHT22;520;50.932;6.962;2023-06-14T00:21:31;23.80;44.50
1063;DHT22;520;50.932;6.962;2023-06-14T00:24:18;23.60;44.80
1063;DHT22;520;50.932;6.962;2023-06-14T00:27:09;23.70;44.70
1063;DHT22;520;50.932;6.962;2023-06-14T00:29:40;23.80;44.60
1063;DHT22;520;50.932;6.962;2023-06-14T00:32:20;23.70;44.90
1063;DHT22;520;50.932;6.962;2023-06-14T00:34:55;23.70;44.80
1063;DHT22;520;50.932;6.962;2023-06-14T00:37:24;23.60;44.90
1063;DHT22;520;50.932;6.962;2023-06-14T00:39:50;23.50;45.30
1063;DHT22;520;50.932;6.962;2023-06-14T00:42:28;23.70;45.20
1063;DHT22;520;50.932;6.962;2023-06-14T00:44:59;23.50;45.00
1063;DHT22;520;50.932;6.962;2023-06-14T00:47:26;23.40;44.70
1063;DHT22;520;50.932;6.962;2023-06-14T00:49:54;23.30;44.80
1063;DHT22;520;50.932;6.962;2023-06-14T00:52:27;23.20;45.40
1063;DHT22;520;50.932;6.962;2023-06-14T00:54:58;23.10;45.60
1063;DHT22;520;50.932;6.962;2023-06-14T00:57:32;23.20;45.10
1063;DHT22;520;50.932;6.962;2023-06-14T01:00:11;23.00;45.00
1063;DHT22;520;50.932;6.962;2023-06-14T01:03:11;22.90;45.20
1063;DHT22;520;50.932;6.962;2023-06-14T01:05:56;22.80;45.60
1063;DHT22;520;50.932;6.962;2023-06-14T01:09:12;22.80;45.60
1063;DHT22;520;50.932;6.962;2023-06-14T01:12:11;22.80;45.30
1063;DHT22;520;50.932;6.962;2023-06-14T01:14:41;22.60;45.10
1063;DHT22;520;50.932;6.962;2023-06-14T01:17:11;22.60;45.30
1063;DHT22;520;50.932;6.962;2023-06-14T01:19:46;22.50;45.50
1063;DHT22;520;50.932;6.962;2023-06-14T01:22:16;22.50;45.60
1063;DHT22;520;50.932;6.962;2023-06-14T01:24:45;22.50;45.70
1063;DHT22;520;50.932;6.962;2023-06-14T01:27:23;22.40;45.90
1063;DHT22;520;50.932;6.962;2023-06-14T01:29:57;22.40;46.10
1063;DHT22;520;50.932;6.962;2023-06-14T01:32:29;22.50;46.00
1063;DHT22;520;50.932;6.962;2023-06-14T01:35:01;22.50;46.10
1063;DHT22;520;50.932;6.962;2023-06-14T01:37:28;22.50;45.90
1063;DHT22;520;50.932;6.962;2023-06-14T01:40:06;22.70;45.90
1063;DHT22;520;50.932;6.962;2023-06-14T01:42:36;22.70;45.40
1063;DHT22;520;50.932;6.962;2023-06-14T01:45:05;22.60;45.70
1063;DHT22;520;50.932;6.962;2023-06-14T01:47:44;22.70;45.70
1063;DHT22;520;50.932;6.962;2023-06-14T01:50:13;22.70;45.30
1063;DHT22;520;50.932;6.962;2023-06-14T01:52:44;22.60;45.30
1063;DHT22;520;50.932;6.962;2023-06-14T01:55:11;22.60;45.50
1063;DHT22;520;50.932;6.962;2023-06-14T01:57:38;22.50;45.20
1063;DHT22;520;50.932;6.962;2023-06-14T02:00:06;22.40;45.60
1063;DHT22;520;50.932;6.962;2023-06-14T02:02:48;22.40;45.70
1063;DHT22;520;50.932;6.962;2023-06-14T02:05:19;22.40;45.50
1063;DHT22;520;50.932;6.962;2023-06-14T02:07:51;22.40;46.00
1063;DHT22;520;50.932;6.962;2023-06-14T02:10:23;22.40;45.50
1063;DHT22;520;50.932;6.962;2023-06-14T02:12:59;22.20;45.80
1063;DHT22;520;50.932;6.962;2023-06-14T02:15:27;22.30;46.00
1063;DHT22;520;50.932;6.962;2023-06-14T02:18:01;22.20;46.10
1063;DHT22;520;50.932;6.962;2023-06-14T02:20:34;22.10;46.30
1063;DHT22;520;50.932;6.962;2023-06-14T02:23:02;22.10;46.50
1063;DHT22;520;50.932;6.962;2023-06-14T02:25:31;22.20;46.50
1063;DHT22;520;50.932;6.962;2023-06-14T02:28:00;22.20;46.90
1063;DHT22;520;50.932;6.962;2023-06-14T02:30:35;22.20;46.60
1063;DHT22;520;50.932;6.962;2023-06-14T02:33:02;22.40;46.30
1063;DHT22;520;50.932;6.962;2023-06-14T02:35:31;22.30;46.30
1063;DHT22;520;50.932;6.962;2023-06-14T02:37:58;22.20;47.20
1063;DHT22;520;50.932;6.962;2023-06-14T02:40:25;22.20;47.60
1063;DHT22;520;50.932;6.962;2023-06-14T02:42:55;22.20;48.00
1063;DHT22;520;50.932;6.962;2023-06-14T02:45:22;22.30;48.40
1063;DHT22;520;50.932;6.962;2023-06-14T02:47:49;22.20;48.50
1063;DHT22;520;50.932;6.962;2023-06-14T02:50:16;22.20;48.40
1063;DHT22;520;50.932;6.962;2023-06-14T02:52:47;22.20;49.40
1063;DHT22;520;50.932;6.962;2023-06-14T02:55:14;22.20;48.90
1063;DHT22;520;50.932;6.962;2023-06-14T02:57:41;22.20;48.70
1063;DHT22;520;50.932;6.962;2023-06-14T03:00:11;22.20;49.10
1063;DHT22;520;50.932;6.962;2023-06-14T03:02:43;22.20;49.10
1063;DHT22;520;50.932;6.962;2023-06-14T03:05:19;22.20;48.80
1063;DHT22;520;50.932;6.962;2023-06-14T03:07:50;22.10;49.10
1063;DHT22;520;50.932;6.962;2023-06-14T03:10:17;22.20;48.20
1063;DHT22;520;50.932;6.962;2023-06-14T03:12:44;22.10;48.50
1063;DHT22;520;50.932;6.962;2023-06-14T03:15:11;22.00;48.60
1063;DHT22;520;50.932;6.962;2023-06-14T03:17:42;21.90;48.70
1063;DHT22;520;50.932;6.962;2023-06-14T03:20:12;21.90;48.50
1063;DHT22;520;50.932;6.962;2023-06-14T03:22:39;21.80;48.40
1063;DHT22;520;50.932;6.962;2023-06-14T03:25:08;21.90;47.70
1063;DHT22;520;50.932;6.962;2023-06-14T03:27:37;21.90;47.70
1063;DHT22;520;50.932;6.962;2023-06-14T03:30:04;21.80;47.70
1063;DHT22;520;50.932;6.962;2023-06-14T03:32:32;21.70;47.50
1063;DHT22;520;50.932;6.962;2023-06-14T03:35:00;21.70;47.50
1063;DHT22;520;50.932;6.962;2023-06-14T03:37:29;21.70;47.70
1063;DHT22;520;50.932;6.962;2023-06-14T03:39:56;21.70;47.70
1063;DHT22;520;50.932;6.962;2023-06-14T03:42:23;21.70;47.70
1063;DHT22;520;50.932;6.962;2023-06-14T03:44:50;21.80;48.00
1063;DHT22;520;50.932;6.962;2023-06-14T03:47:16;22.00;47.90
1063;DHT22;520;50.932;6.962;2023-06-14T03:49:50;21.90;48.10
1063;DHT22;520;50.932;6.962;2023-06-14T03:52:18;22.00;47.40
1063;DHT22;520;50.932;6.962;2023-06-14T03:54:48;21.90;47.50
1063;DHT22;520;50.932;6.962;2023-06-14T03:57:20;21.80;48.00
1063;DHT22;520;50.932;6.962;2023-06-14T03:59:51;21.70;48.00
1063;DHT22;520;50.932;6.962;2023-06-14T04:02:21;21.70;48.30
1063;DHT22;520;50.932;6.962;2023-06-14T04:04:49;21.70;48.50
1063;DHT22;520;50.932;6.962;2023-06-14T04:07:17;21.80;48.60
1063;DHT22;520;50.932;6.962;2023-06-14T04:09:46;22.00;48.00
1063;DHT22;520;50.932;6.962;2023-06-14T04:12:19;21.80;48.60
1063;DHT22;520;50.932;6.962;2023-06-14T04:14:48;21.70;49.00
1063;DHT22;520;50.932;6.962;2023-06-14T04:17:16;21.70;49.50
1063;DHT22;520;50.932;6.962;2023-06-14T04:19:43;21.70;49.00
1063;DHT22;520;50.932;6.962;2023-06-14T04:22:10;21.60;48.00
1063;DHT22;520;50.932;6.962;2023-06-14T04:24:38;21.60;48.90
1063;DHT22;520;50.932;6.962;2023-06-14T04:27:04;21.50;49.10
1063;DHT22;520;50.932;6.962;2023-06-14T04:29:31;21.40;49.10
1063;DHT22;520;50.932;6.962;2023-06-14T04:32:01;21.60;49.60
1063;DHT22;520;50.932;6.962;2023-06-14T04:34:33;21.60;49.10
1063;DHT22;520;50.932;6.962;2023-06-14T04:37:04;21.60;48.50
1063;DHT22;520;50.932;6.962;2023-06-14T04:39:36;21.60;48.70
1063;DHT22;520;50.932;6.962;2023-06-14T04:42:19;21.60;48.90
1063;DHT22;520;50.932;6.962;2023-06-14T04:44:50;21.60;49.20
1063;DHT22;520;50.932;6.962;2023-06-14T04:47:18;21.60;49.10
1063;DHT22;520;50.932;6.962;2023-06-14T04:49:48;21.70;48.00
1063;DHT22;520;50.932;6.962;2023-06-14T04:52:14;21.50;47.90
1063;DHT22;520;50.932;6.962;2023-06-14T04:54:42;21.40;48.10
1063;DHT22;520;50.932;6.962;2023-06-14T04:57:11;21.40;48.50
1063;DHT22;520;50.932;6.962;2023-06-14T04:59:46;21.50;48.70
1063;DHT22;520;50.932;6.962;2023-06-14T05:02:13;21.60;47.60
1063;DHT22;520;50.932;6.962;2023-06-14T05:04:42;21.40;48.00
1063;DHT22;520;50.932;6.962;2023-06-14T05:07:09;21.40;48.00
1063;DHT22;520;50.932;6.962;2023-06-14T05:09:37;21.30;48.30
1063;DHT22;520;50.932;6.962;2023-06-14T05:12:04;21.50;48.60
1063;DHT22;520;50.932;6.962;2023-06-14T05:14:33;21.40;48.20
1063;DHT22;520;50.932;6.962;2023-06-14T05:17:00;21.40;47.70
1063;DHT22;520;50.932;6.962;2023-06-14T05:19:27;21.10;47.70
1063;DHT22;520;50.932;6.962;2023-06-14T05:21:54;21.00;48.30
1063;DHT22;520;50.932;6.962;2023-06-14T05:24:22;21.20;47.90
1063;DHT22;520;50.932;6.962;2023-06-14T05:26:52;21.30;47.70
1063;DHT22;520;50.932;6.962;2023-06-14T05:29:27;21.30;47.90
1063;DHT22;520;50.932;6.962;2023-06-14T05:31:56;21.50;47.80
1063;DHT22;520;50.932;6.962;2023-06-14T05:34:23;21.50;47.30
1063;DHT22;520;50.932;6.962;2023-06-14T05:37:21;21.50;47.30
1063;DHT22;520;50.932;6.962;2023-06-14T05:40:03;21.50;47.80
1063;DHT22;520;50.932;6.962;2023-06-14T05:42:48;21.60;47.40
1063;DHT22;520;50.932;6.962;2023-06-14T05:52:10;21.50;47.10
1063;DHT22;520;50.932;6.962;2023-06-14T05:54:43;21.40;47.50
1063;DHT22;520;50.932;6.962;2023-06-14T05:57:10;21.50;47.70
1063;DHT22;520;50.932;6.962;2023-06-14T05:59:39;21.50;46.90
1063;DHT22;520;50.932;6.962;2023-06-14T06:02:29;21.40;47.30
1063;DHT22;520;50.932;6.962;2023-06-14T06:05:00;21.40;47.20
1063;DHT22;520;50.932;6.962;2023-06-14T06:07:29;21.40;47.50
1063;DHT22;520;50.932;6.962;2023-06-14T06:10:09;21.40;47.90
1063;DHT22;520;50.932;6.962;2023-06-14T06:16:09;21.60;47.90
1063;DHT22;520;50.932;6.962;2023-06-14T06:18:45;21.60;47.30
1063;DHT22;520;50.932;6.962;2023-06-14T06:21:13;21.50;47.30
1063;DHT22;520;50.932;6.962;2023-06-14T06:23:47;21.60;47.60
1063;DHT22;520;50.932;6.962;2023-06-14T06:29:42;21.60;48.00
1063;DHT22;520;50.932;6.962;2023-06-14T06:32:38;21.70;48.20
1063;DHT22;520;50.932;6.962;2023-06-14T06:42:14;22.00;47.10
1063;DHT22;520;50.932;6.962;2023-06-14T06:44:47;22.00;46.90
1063;DHT22;520;50.932;6.962;2023-06-14T06:47:37;22.00;47.20
1063;DHT22;520;50.932;6.962;2023-06-14T06:50:41;22.00;47.50
1063;DHT22;520;50.932;6.962;2023-06-14T06:53:13;22.10;47.30
1063;DHT22;520;50.932;6.962;2023-06-14T07:00:54;22.30;46.70
1063;DHT22;520;50.932;6.962;2023-06-14T07:03:35;22.50;46.10
1063;DHT22;520;50.932;6.962;2023-06-14T07:06:25;22.40;46.50
1063;DHT22;520;50.932;6.962;2023-06-14T07:09:10;22.40;46.60
1063;DHT22;520;50.932;6.962;2023-06-14T07:11:54;22.40;46.60
1063;DHT22;520;50.932;6.962;2023-06-14T07:14:40;22.30;46.80
1063;DHT22;520;50.932;6.962;2023-06-14T07:17:16;22.70;46.50
1063;DHT22;520;50.932;6.962;2023-06-14T07:19:56;22.70;46.40
1063;DHT22;520;50.932;6.962;2023-06-14T07:22:43;22.70;46.00
1063;DHT22;520;50.932;6.962;2023-06-14T07:25:21;22.70;46.40
1063;DHT22;520;50.932;6.962;2023-06-14T07:27:55;22.70;46.20
1063;DHT22;520;50.932;6.962;2023-06-14T07:30:45;23.00;46.30
1063;DHT22;520;50.932;6.962;2023-06-14T07:33:12;22.70;45.00
1063;DHT22;520;50.932;6.962;2023-06-14T07:35:44;23.00;45.40
1063;DHT22;520;50.932;6.962;2023-06-14T07:38:42;23.00;45.10
1063;DHT22;520;50.932;6.962;2023-06-14T07:41:09;23.00;44.90
1063;DHT22;520;50.932;6.962;2023-06-14T07:47:06;23.10;45.40
1063;DHT22;520;50.932;6.962;2023-06-14T07:49:38;23.40;44.00
1063;DHT22;520;50.932;6.962;2023-06-14T07:52:06;23.40;43.90
1063;DHT22;520;50.932;6.962;2023-06-14T07:55:05;23.40;43.80
1063;DHT22;520;50.932;6.962;2023-06-14T07:57:33;23.60;42.80
1063;DHT22;520;50.932;6.962;2023-06-14T08:00:18;23.50;42.20
1063;DHT22;520;50.932;6.962;2023-06-14T08:02:54;23.60;42.30
1063;DHT22;520;50.932;6.962;2023-06-14T08:05:28;23.60;42.00
1063;DHT22;520;50.932;6.962;2023-06-14T08:07:58;23.80;42.00
1063;DHT22;520;50.932;6.962;2023-06-14T08:10:26;23.90;41.10
1063;DHT22;520;50.932;6.962;2023-06-14T08:13:03;23.70;41.60
1063;DHT22;520;50.932;6.962;2023-06-14T08:15:36;23.90;42.10
1063;DHT22;520;50.932;6.962;2023-06-14T08:18:06;24.10;40.30
1063;DHT22;520;50.932;6.962;2023-06-14T08:20:36;24.30;40.10
1063;DHT22;520;50.932;6.962;2023-06-14T08:23:11;24.40;38.50
1063;DHT22;520;50.932;6.962;2023-06-14T08:29:58;24.50;37.30
1063;DHT22;520;50.932;6.962;2023-06-14T08:33:00;24.80;35.70
1063;DHT22;520;50.932;6.962;2023-06-14T08:35:42;25.00;35.60
1063;DHT22;520;50.932;6.962;2023-06-14T08:38:36;25.10;35.00
1063;DHT22;520;50.932;6.962;2023-06-14T08:41:21;25.10;35.00
1063;DHT22;520;50.932;6.962;2023-06-14T08:44:05;25.20;35.40
1063;DHT22;520;50.932;6.962;2023-06-14T08:46:44;25.20;35.70
1063;DHT22;520;50.932;6.962;2023-06-14T08:49:17;25.40;35.80
1063;DHT22;520;50.932;6.962;2023-06-14T08:51:58;25.60;35.00
1063;DHT22;520;50.932;6.962;2023-06-14T08:54:36;25.80;35.60
1063;DHT22;520;50.932;6.962;2023-06-14T08:57:36;26.70;35.20
1063;DHT22;520;50.932;6.962;2023-06-14T09:00:46;26.60;34.40
1063;DHT22;520;50.932;6.962;2023-06-14T09:04:08;26.90;34.20
1063;DHT22;520;50.932;6.962;2023-06-14T09:07:14;27.10;33.90
1063;DHT22;520;50.932;6.962;2023-06-14T09:09:45;27.00;34.20
1063;DHT22;520;50.932;6.962;2023-06-14T09:13:03;27.20;34.10
1063;DHT22;520;50.932;6.962;2023-06-14T09:16:41;27.80;33.10
1063;DHT22;520;50.932;6.962;2023-06-14T09:20:03;27.70;33.70
1063;DHT22;520;50.932;6.962;2023-06-14T09:22:47;28.40;32.40
1063;DHT22;520;50.932;6.962;2023-06-14T09:25:42;29.50;31.40
1063;DHT22;520;50.932;6.962;2023-06-14T09:28:39;29.60;31.20
1063;DHT22;520;50.932;6.962;2023-06-14T09:31:17;30.20;30.90
1063;DHT22;520;50.932;6.962;2023-06-14T09:33:46;29.50;30.90
1063;DHT22;520;50.932;6.962;2023-06-14T09:36:41;29.80;30.00
1063;DHT22;520;50.932;6.962;2023-06-14T09:39:20;30.10;30.20
1063;DHT22;520;50.932;6.962;2023-06-14T09:42:20;30.40;30.30
1063;DHT22;520;50.932;6.962;2023-06-14T09:45:16;30.40;30.50
1063;DHT22;520;50.932;6.962;2023-06-14T09:48:14;31.00;29.20
1063;DHT22;520;50.932;6.962;2023-06-14T09:51:26;32.70;27.60
1063;DHT22;520;50.932;6.962;2023-06-14T09:54:32;33.00;27.20
1063;DHT22;520;50.932;6.962;2023-06-14T09:57:14;32.40;27.30
1063;DHT22;520;50.932;6.962;2023-06-14T09:59:51;32.30;27.20
1063;DHT22;520;50.932;6.962;2023-06-14T10:02:45;33.10;27.10
1063;DHT22;520;50.932;6.962;2023-06-14T10:06:00;33.60;26.80
1063;DHT22;520;50.932;6.962;2023-06-14T10:09:04;34.20;25.70
1063;DHT22;520;50.932;6.962;2023-06-14T10:11:36;34.60;25.50
1063;DHT22;520;50.932;6.962;2023-06-14T10:14:16;33.90;26.30
1063;DHT22;520;50.932;6.962;2023-06-14T10:17:31;33.60;26.10
1063;DHT22;520;50.932;6.962;2023-06-14T10:20:34;33.70;26.10
1063;DHT22;520;50.932;6.962;2023-06-14T10:23:40;34.70;25.80
1063;DHT22;520;50.932;6.962;2023-06-14T10:26:26;33.80;26.10
1063;DHT22;520;50.932;6.962;2023-06-14T10:29:00;34.00;26.30
1063;DHT22;520;50.932;6.962;2023-06-14T10:31:55;33.80;26.60
1063;DHT22;520;50.932;6.962;2023-06-14T10:34:28;34.00;26.50
1063;DHT22;520;50.932;6.962;2023-06-14T10:37:14;33.80;26.70
1063;DHT22;520;50.932;6.962;2023-06-14T10:39:51;33.80;26.50
1063;DHT22;520;50.932;6.962;2023-06-14T10:42:34;33.40;27.00
1063;DHT22;520;50.932;6.962;2023-06-14T10:45:13;33.80;26.40
1063;DHT22;520;50.932;6.962;2023-06-14T10:50:44;33.30;26.60
1063;DHT22;520;50.932;6.962;2023-06-14T10:53:59;33.50;26.30
1063;DHT22;520;50.932;6.962;2023-06-14T10:57:01;33.30;26.90
1063;DHT22;520;50.932;6.962;2023-06-14T10:59:39;33.00;26.50
1063;DHT22;520;50.932;6.962;2023-06-14T11:04:52;33.70;26.60
1063;DHT22;520;50.932;6.962;2023-06-14T11:10:48;33.40;26.40
1063;DHT22;520;50.932;6.962;2023-06-14T11:13:28;32.60;27.50
1063;DHT22;520;50.932;6.962;2023-06-14T11:16:15;32.20;27.60
1063;DHT22;520;50.932;6.962;2023-06-14T11:19:15;32.40;27.80
1063;DHT22;520;50.932;6.962;2023-06-14T11:22:19;32.10;27.90
1063;DHT22;520;50.932;6.962;2023-06-14T11:24:57;32.10;28.30
1063;DHT22;520;50.932;6.962;2023-06-14T11:27:33;32.40;28.90
1063;DHT22;520;50.932;6.962;2023-06-14T11:30:36;32.50;29.00
1063;DHT22;520;50.932;6.962;2023-06-14T11:33:11;32.30;29.40
1063;DHT22;520;50.932;6.962;2023-06-14T11:35:55;32.20;29.70
1063;DHT22;520;50.932;6.962;2023-06-14T11:38:38;31.90;30.30
1063;DHT22;520;50.932;6.962;2023-06-14T11:41:21;33.20;29.60
1063;DHT22;520;50.932;6.962;2023-06-14T11:44:18;33.00;29.60
1063;DHT22;520;50.932;6.962;2023-06-14T11:46:53;32.70;29.70
1063;DHT22;520;50.932;6.962;2023-06-14T11:49:25;32.40;30.00
1063;DHT22;520;50.932;6.962;2023-06-14T11:55:26;32.10;30.50
1063;DHT22;520;50.932;6.962;2023-06-14T12:01:31;31.60;31.30
1063;DHT22;520;50.932;6.962;2023-06-14T12:04:22;30.70;32.10
1063;DHT22;520;50.932;6.962;2023-06-14T12:06:54;30.60;32.30
1063;DHT22;520;50.932;6.962;2023-06-14T12:09:36;30.60;32.00
1063;DHT22;520;50.932;6.962;2023-06-14T12:12:22;30.50;31.60
1063;DHT22;520;50.932;6.962;2023-06-14T12:18:41;31.50;30.00
1063;DHT22;520;50.932;6.962;2023-06-14T12:21:46;31.60;30.00
1063;DHT22;520;50.932;6.962;2023-06-14T12:25:32;31.60;30.20
1063;DHT22;520;50.932;6.962;2023-06-14T12:32:39;32.00;29.00
1063;DHT22;520;50.932;6.962;2023-06-14T12:35:46;31.60;29.50
1063;DHT22;520;50.932;6.962;2023-06-14T12:46:15;29.70;32.90
1063;DHT22;520;50.932;6.962;2023-06-14T12:51:33;30.10;32.20
1063;DHT22;520;50.932;6.962;2023-06-14T12:58:02;29.90;32.80
1063;DHT22;520;50.932;6.962;2023-06-14T13:00:57;29.40;33.90
1063;DHT22;520;50.932;6.962;2023-06-14T13:03:39;29.50;33.80
1063;DHT22;520;50.932;6.962;2023-06-14T14:29:22;28.10;34.50
1063;DHT22;520;50.932;6.962;2023-06-14T14:32:47;27.90;34.90
1063;DHT22;520;50.932;6.962;2023-06-14T14:40:14;27.70;36.00
1063;DHT22;520;50.932;6.962;2023-06-14T14:59:02;27.50;36.20
1063;DHT22;520;50.932;6.962;2023-06-14T16:45:44;26.80;36.20
1063;DHT22;520;50.932;6.962;2023-06-14T16:56:44;26.70;36.40
1063;DHT22;520;50.932;6.962;2023-06-14T17:03:26;26.50;36.60
1063;DHT22;520;50.932;6.962;2023-06-14T22:21:29;23.20;48.30
1063;DHT22;520;50.932;6.962;2023-06-14T22:55:13;22.60;48.70
1063;DHT22;520;50.932;6.962;2023-06-14T23:02:38;22.50;49.10
1063;DHT22;520;50.932;6.962;2023-06-14T23:14:54;22.40;50.00
1063;DHT22;520;50.932;6.962;2023-06-14T23:18:26;22.50;49.70
1063;DHT22;520;50.932;6.962;2023-06-14T23:40:31;22.30;50.10
1063;DHT22;520;50.932;6.962;2023-06-14T23:44:27;22.10;50.50
1063;DHT22;520;50.932;6.962;2023-06-14T23:47:57;22.10;51.00
